Time;durP1;ratioP1;P1;durP2;ratioP2;P2;SDS_P1;SDS_P2;PMS_P1;PMS_P2;Temp;Humidity;BMP_temperature;BMP_pressure;BME280_temperature;BME280_humidity;BME280_pressure;Samples;Min_cycle;Max_cycle;Signal;HPM_P1;HPM_P2
2023/10/06 00:00:46;;;;;;;0.00;0.00;;;;;;;14.59;100.00;102351.19;5113324;28;20500;-47
2023/10/06 00:03:11;;;;;;;0.00;0.00;;;;;;;14.60;100.00;102348.28;5112699;28;20050;-48
2023/10/06 00:05:38;;;;;;;0.00;0.00;;;;;;;14.60;100.00;102356.41;5112605;28;20122;-44
2023/10/06 00:08:05;;;;;;;0.00;0.00;;;;;;;14.57;100.00;102343.22;5099916;28;20063;-49
2023/10/06 00:10:32;;;;;;;0.00;0.00;;;;;;;14.58;100.00;102334.03;5111789;28;20028;-47
2023/10/06 00:13:03;;;;;;;0.00;0.00;;;;;;;14.61;100.00;102331.03;5096946;28;20028;-44
2023/10/06 00:15:38;;;;;;;0.00;0.00;;;;;;;14.63;100.00;102333.53;5095237;28;20016;-46
2023/10/06 00:18:07;;;;;;;0.00;0.00;;;;;;;14.62;100.00;102327.28;5111959;28;20074;-47
2023/10/06 00:20:42;;;;;;;0.00;0.00;;;;;;;14.61;100.00;102332.84;5096700;28;20037;-43
2023/10/06 00:23:12;;;;;;;0.00;0.00;;;;;;;14.59;100.00;102330.34;5111594;28;20050;-45
2023/10/06 00:25:42;;;;;;;0.00;0.00;;;;;;;14.57;100.00;102324.25;5111087;28;20046;-49
2023/10/06 00:28:16;;;;;;;0.00;0.00;;;;;;;14.57;100.00;102317.97;5103204;28;20491;-46
2023/10/06 00:30:42;;;;;;;0.00;0.00;;;;;;;14.58;100.00;102325.06;5109318;28;20047;-48
2023/10/06 00:33:07;;;;;;;0.00;0.00;;;;;;;14.59;100.00;102326.78;5110890;28;20043;-45
2023/10/06 00:35:33;;;;;;;0.00;0.00;;;;;;;14.58;100.00;102336.75;5112362;28;20393;-48
2023/10/06 00:38:12;;;;;;;0.00;0.00;;;;;;;14.56;100.00;102327.97;5107436;28;20058;-46
2023/10/06 00:40:39;;;;;;;0.00;0.00;;;;;;;14.56;100.00;102330.69;5102780;28;20031;-47
2023/10/06 00:43:08;;;;;;;0.00;0.00;;;;;;;14.54;100.00;102330.00;5111612;28;20046;-43
2023/10/06 00:45:39;;;;;;;0.00;0.00;;;;;;;14.53;100.00;102322.88;5112301;28;20035;-45
2023/10/06 00:48:12;;;;;;;0.00;0.00;;;;;;;14.54;100.00;102330.00;5126338;27;20038;-47
2023/10/06 00:50:39;;;;;;;0.00;0.00;;;;;;;14.52;100.00;102317.63;5110651;28;20077;-46
2023/10/06 00:53:04;;;;;;;0.00;0.00;;;;;;;14.49;100.00;102316.09;5111875;28;20460;-43
2023/10/06 00:55:30;;;;;;;0.00;0.00;;;;;;;14.48;100.00;102314.38;5093574;28;20028;-46
2023/10/06 00:57:56;;;;;;;0.00;0.00;;;;;;;14.51;100.00;102316.78;5126700;27;20035;-44
2023/10/06 01:00:22;;;;;;;0.00;0.00;;;;;;;14.49;100.00;102316.09;5105974;28;20055;-46
2023/10/06 01:02:48;;;;;;;0.00;0.00;;;;;;;14.46;100.00;102311.03;5110401;28;20050;-43
2023/10/06 01:05:19;;;;;;;0.00;0.00;;;;;;;14.45;100.00;102321.00;5111724;28;20488;-46
2023/10/06 01:07:47;;;;;;;0.00;0.00;;;;;;;14.41;100.00;102313.41;5107406;28;20028;-44
2023/10/06 01:10:27;;;;;;;0.00;0.00;;;;;;;14.41;100.00;102310.69;5111497;28;20557;-43
2023/10/06 01:12:53;;;;;;;0.00;0.00;;;;;;;14.39;100.00;102310.84;5083210;28;20039;-46
2023/10/06 01:15:19;;;;;;;0.00;0.00;;;;;;;14.40;100.00;102306.28;5111275;28;20035;-46
2023/10/06 01:17:45;;;;;;;0.00;0.00;;;;;;;14.38;100.00;102305.63;5095806;28;20067;-44
2023/10/06 01:20:16;;;;;;;0.00;0.00;;;;;;;14.38;100.00;102300.22;5107356;28;20032;-46
2023/10/06 01:22:42;;;;;;;0.00;0.00;;;;;;;14.38;100.00;102297.50;5110311;28;20039;-46
2023/10/06 01:25:13;;;;;;;0.00;0.00;;;;;;;14.37;100.00;102293.91;5099719;28;20088;-45
2023/10/06 01:27:39;;;;;;;0.00;0.00;;;;;;;14.38;100.00;102292.91;5108794;28;20035;-48
2023/10/06 01:30:20;;;;;;;0.00;0.00;;;;;;;14.39;100.00;102294.59;5111244;28;20398;-45
2023/10/06 01:32:50;;;;;;;0.00;0.00;;;;;;;14.36;100.00;102294.94;5110841;28;20031;-48
2023/10/06 01:35:15;;;;;;;0.00;0.00;;;;;;;14.34;100.00;102286.16;5110780;28;20042;-48
2023/10/06 01:37:42;;;;;;;0.00;0.00;;;;;;;14.38;100.00;102281.25;5110582;28;20032;-47
2023/10/06 01:40:35;;;;;;;0.00;0.00;;;;;;;14.33;100.00;102291.75;5111149;28;20031;-45
2023/10/06 01:42:58;;;;;;;0.00;0.00;;;;;;;14.31;100.00;102291.06;5107485;28;20051;-43
2023/10/06 01:45:23;;;;;;;0.00;0.00;;;;;;;14.30;100.00;102287.53;5108060;28;20034;-47
2023/10/06 01:47:57;;;;;;;0.00;0.00;;;;;;;14.28;100.00;102287.69;5108684;28;20031;-48
2023/10/06 01:50:28;;;;;;;0.00;0.00;;;;;;;14.25;100.00;102284.47;5115606;28;20059;-48
2023/10/06 01:52:57;;;;;;;0.00;0.00;;;;;;;14.25;100.00;102287.19;5115791;28;20039;-48
2023/10/06 01:55:24;;;;;;;0.00;0.00;;;;;;;14.21;100.00;102292.06;5115908;28;20506;-46
2023/10/06 01:57:54;;;;;;;0.00;0.00;;;;;;;14.18;100.00;102287.00;5115477;28;20070;-46
2023/10/06 02:00:26;;;;;;;0.00;0.00;;;;;;;14.16;100.00;102283.63;5115305;28;20157;-45
2023/10/06 02:02:51;;;;;;;0.00;0.00;;;;;;;14.15;100.00;102276.53;5115091;28;20138;-45
2023/10/06 02:05:17;;;;;;;0.00;0.00;;;;;;;14.15;100.00;102276.53;5115245;28;20157;-46
2023/10/06 02:07:44;;;;;;;0.00;0.00;;;;;;;14.16;100.00;102286.31;5115462;28;20016;-45
2023/10/06 02:10:12;;;;;;;0.00;0.00;;;;;;;14.13;100.00;102289.38;5114939;28;20027;-46
2023/10/06 02:12:38;;;;;;;0.00;0.00;;;;;;;14.12;100.00;102293.13;5115168;28;20084;-44
2023/10/06 02:15:10;;;;;;;0.00;0.00;;;;;;;14.10;100.00;102295.13;5114699;28;20521;-48
2023/10/06 02:17:36;;;;;;;0.00;0.00;;;;;;;14.06;100.00;102299.22;5115652;28;20055;-46
2023/10/06 02:20:02;;;;;;;0.00;0.00;;;;;;;14.06;100.00;102288.38;5132005;27;20040;-45
2023/10/06 02:22:27;;;;;;;0.00;0.00;;;;;;;14.03;100.00;102284.16;5135931;27;20031;-47
2023/10/06 02:24:52;;;;;;;0.00;0.00;;;;;;;14.07;100.00;102297.34;5126342;27;20028;-44
2023/10/06 02:27:18;;;;;;;0.00;0.00;;;;;;;14.10;100.00;102295.13;5115271;28;20020;-46
2023/10/06 02:29:43;;;;;;;0.00;0.00;;;;;;;14.10;100.00;102289.72;5114914;28;20081;-45
2023/10/06 02:32:08;;;;;;;0.00;0.00;;;;;;;14.11;100.00;102285.16;5114781;28;20120;-44
2023/10/06 02:34:38;;;;;;;0.00;0.00;;;;;;;14.07;100.00;102278.41;5115064;28;20153;-46
2023/10/06 02:37:04;;;;;;;0.00;0.00;;;;;;;14.08;100.00;102272.78;5114736;28;20053;-48
2023/10/06 02:39:33;;;;;;;0.00;0.00;;;;;;;14.07;100.00;102271.13;5113942;28;20485;-46
2023/10/06 02:42:07;;;;;;;0.00;0.00;;;;;;;14.03;100.00;102258.91;5114493;28;20040;-47
2023/10/06 02:44:37;;;;;;;0.00;0.00;;;;;;;14.03;100.00;102261.63;5117300;27;20577;-49
2023/10/06 02:47:04;;;;;;;0.00;0.00;;;;;;;14.01;100.00;102261.81;5111407;28;20522;-48
2023/10/06 02:49:35;;;;;;;0.00;0.00;;;;;;;14.04;100.00;102260.63;5098327;28;20057;-46
2023/10/06 02:52:01;;;;;;;0.00;0.00;;;;;;;14.05;100.00;102260.44;5122462;27;20046;-47
2023/10/06 02:54:29;;;;;;;0.00;0.00;;;;;;;14.08;100.00;102259.25;5110225;28;20530;-48
2023/10/06 02:56:55;;;;;;;0.00;0.00;;;;;;;14.09;100.00;102247.44;5115370;27;20031;-45
2023/10/06 02:59:22;;;;;;;0.00;0.00;;;;;;;14.08;100.00;102253.84;5130700;27;20426;-47
2023/10/06 03:01:52;;;;;;;0.00;0.00;;;;;;;14.07;100.00;102241.34;5102337;28;20385;-45
2023/10/06 03:04:21;;;;;;;0.00;0.00;;;;;;;14.07;100.00;102240.50;5114330;28;20043;-44
2023/10/06 03:06:53;;;;;;;0.00;0.00;;;;;;;14.07;100.00;102241.34;5113998;28;20028;-48
2023/10/06 03:09:20;;;;;;;0.00;0.00;;;;;;;14.07;100.00;102229.66;5113756;28;20034;-48
2023/10/06 03:11:49;;;;;;;0.00;0.00;;;;;;;14.09;100.00;102225.78;5113997;28;20023;-46
2023/10/06 03:14:24;;;;;;;0.00;0.00;;;;;;;14.08;100.00;102226.78;5113777;28;20024;-44
2023/10/06 03:16:53;;;;;;;0.00;0.00;;;;;;;14.09;100.00;102228.47;5113959;28;20122;-45
2023/10/06 03:19:24;;;;;;;0.00;0.00;;;;;;;14.07;100.00;102229.66;5113622;28;20028;-45
2023/10/06 03:21:49;;;;;;;0.00;0.00;;;;;;;14.08;100.00;102234.91;5113879;28;20111;-47
2023/10/06 03:24:25;;;;;;;0.00;0.00;;;;;;;14.07;100.00;102237.78;5113553;28;20102;-48
2023/10/06 03:26:51;;;;;;;0.00;0.00;;;;;;;14.09;100.00;102239.31;5113430;28;20036;-45
2023/10/06 03:29:28;;;;;;;0.00;0.00;;;;;;;14.10;100.00;102245.56;5113368;28;20035;-46
2023/10/06 03:31:56;;;;;;;0.00;0.00;;;;;;;14.12;100.00;102238.97;5113513;28;20420;-47
2023/10/06 03:34:23;;;;;;;0.00;0.00;;;;;;;14.14;100.00;102234.22;5114223;28;20034;-47
2023/10/06 03:36:51;;;;;;;0.00;0.00;;;;;;;14.16;100.00;102236.75;5113837;28;20027;-45
2023/10/06 03:39:27;;;;;;;0.00;0.00;;;;;;;14.18;100.00;102238.28;5113395;28;20032;-50
2023/10/06 03:41:55;;;;;;;0.00;0.00;;;;;;;14.17;100.00;102239.28;5113107;28;20059;-43
2023/10/06 03:44:26;;;;;;;0.00;0.00;;;;;;;14.17;100.00;102236.59;5113389;28;20024;-46
2023/10/06 03:46:55;;;;;;;0.00;0.00;;;;;;;14.19;100.00;102220.16;5113587;28;20557;-47
2023/10/06 03:49:20;;;;;;;0.00;0.00;;;;;;;14.19;100.00;102231.84;5113493;28;20374;-44
2023/10/06 03:51:47;;;;;;;0.00;0.00;;;;;;;14.19;100.00;102229.16;5113201;28;20032;-48
2023/10/06 03:54:12;;;;;;;0.00;0.00;;;;;;;14.18;100.00;102227.44;5112599;28;20119;-46
2023/10/06 03:56:38;;;;;;;0.00;0.00;;;;;;;14.20;100.00;102221.88;5102593;28;20035;-46
2023/10/06 03:59:12;;;;;;;0.00;0.00;;;;;;;14.23;100.00;102222.34;5093377;28;20404;-46
2023/10/06 04:01:38;;;;;;;0.00;0.00;;;;;;;14.22;100.00;102234.22;5111822;28;20052;-44
2023/10/06 04:04:04;;;;;;;0.00;0.00;;;;;;;14.21;100.00;102216.25;5113378;27;20654;-46
2023/10/06 04:06:35;;;;;;;0.00;0.00;;;;;;;14.23;100.00;102214.22;5110792;28;20473;-46
2023/10/06 04:09:00;;;;;;;0.00;0.00;;;;;;;14.22;100.00;102212.56;5111142;28;20543;-45
2023/10/06 04:11:34;;;;;;;0.00;0.00;;;;;;;14.21;100.00;102205.44;5117153;27;20031;-44
2023/10/06 04:13:59;;;;;;;0.00;0.00;;;;;;;14.21;100.00;102208.13;5118476;27;20038;-43
2023/10/06 04:16:25;;;;;;;0.00;0.00;;;;;;;14.18;100.00;102197.66;5110776;28;20016;-46
2023/10/06 04:18:50;;;;;;;0.00;0.00;;;;;;;14.16;100.00;102194.25;5112363;28;20028;-46
2023/10/06 04:21:16;;;;;;;0.00;0.00;;;;;;;14.17;100.00;102192.44;5112292;28;20054;-47
2023/10/06 04:23:42;;;;;;;0.00;0.00;;;;;;;14.16;100.00;102194.25;5098112;28;20019;-46
2023/10/06 04:26:09;;;;;;;0.00;0.00;;;;;;;14.18;100.00;102204.94;5076189;28;20123;-45
2023/10/06 04:28:34;;;;;;;0.00;0.00;;;;;;;14.16;100.00;102196.97;5111278;28;20024;-46
2023/10/06 04:31:00;;;;;;;0.00;0.00;;;;;;;14.19;100.00;102196.66;5059371;28;20058;-44
2023/10/06 04:33:28;;;;;;;0.00;0.00;;;;;;;14.21;100.00;102194.59;5111211;28;20080;-46
2023/10/06 04:35:59;;;;;;;0.00;0.00;;;;;;;14.18;100.00;102194.94;5106162;28;20031;-47
2023/10/06 04:38:28;;;;;;;0.00;0.00;;;;;;;14.20;100.00;102201.03;5109949;28;20107;-48
2023/10/06 04:40:55;;;;;;;0.00;0.00;;;;;;;14.19;100.00;102201.19;5110996;28;20123;-46
2023/10/06 04:43:20;;;;;;;0.00;0.00;;;;;;;14.15;100.00;102183.63;5109365;28;20023;-45
2023/10/06 04:45:47;;;;;;;0.00;0.00;;;;;;;14.14;100.00;102193.63;5107471;28;21005;-43
2023/10/06 04:48:15;;;;;;;0.00;0.00;;;;;;;14.16;100.00;102188.84;5112093;28;20109;-47
2023/10/06 04:50:44;;;;;;;0.00;0.00;;;;;;;14.13;100.00;102189.19;5100322;28;20039;-49
2023/10/06 04:53:11;;;;;;;0.00;0.00;;;;;;;14.11;100.00;102187.69;5112199;28;20046;-46
2023/10/06 04:55:39;;;;;;;0.00;0.00;;;;;;;14.09;100.00;102192.44;5112452;28;20153;-45
2023/10/06 04:58:07;;;;;;;0.00;0.00;;;;;;;14.08;100.00;102191.59;5103497;28;20023;-46
2023/10/06 05:00:33;;;;;;;0.00;0.00;;;;;;;14.10;100.00;102184.13;5092138;28;20148;-45
2023/10/06 05:02:59;;;;;;;0.00;0.00;;;;;;;14.09;100.00;102182.47;5091086;28;20422;-46
2023/10/06 05:05:26;;;;;;;0.00;0.00;;;;;;;14.08;100.00;102191.59;5111912;28;20020;-43
2023/10/06 05:07:53;;;;;;;0.00;0.00;;;;;;;14.08;100.00;102199.69;5111974;28;20027;-44
2023/10/06 05:10:25;;;;;;;0.00;0.00;;;;;;;14.08;100.00;102201.56;5093793;28;20039;-48
2023/10/06 05:12:51;;;;;;;0.00;0.00;;;;;;;14.09;100.00;102185.16;5110577;28;20038;-45
2023/10/06 05:15:32;;;;;;;0.00;0.00;;;;;;;14.08;100.00;102194.28;5111828;28;20032;-45
2023/10/06 05:17:58;;;;;;;0.00;0.00;;;;;;;14.11;100.00;102193.94;5112320;28;20031;-48
2023/10/06 05:20:29;;;;;;;0.00;0.00;;;;;;;14.08;100.00;102183.47;5113983;28;20072;-46
2023/10/06 05:23:09;;;;;;;0.00;0.00;;;;;;;14.07;100.00;102191.78;5113642;28;20035;-45
2023/10/06 05:25:38;;;;;;;0.00;0.00;;;;;;;14.08;100.00;102191.59;5095622;28;20070;-50
2023/10/06 05:28:04;;;;;;;0.00;0.00;;;;;;;14.11;100.00;102190.38;5103376;28;20106;-47
2023/10/06 05:30:30;;;;;;;0.00;0.00;;;;;;;14.11;100.00;102190.38;5116155;28;20454;-47
2023/10/06 05:33:00;;;;;;;0.00;0.00;;;;;;;14.07;100.00;102208.84;5130792;27;20110;-45
2023/10/06 05:35:30;;;;;;;0.00;0.00;;;;;;;14.06;100.00;102207.19;5136863;27;20071;-45
2023/10/06 05:37:57;;;;;;;0.00;0.00;;;;;;;14.08;100.00;102209.69;5118822;27;20050;-47
2023/10/06 05:40:22;;;;;;;0.00;0.00;;;;;;;14.07;100.00;102219.69;5131292;27;20054;-47
2023/10/06 05:42:51;;;;;;;0.00;0.00;;;;;;;14.04;100.00;102215.47;5120027;27;20462;-47
2023/10/06 05:45:20;;;;;;;0.00;0.00;;;;;;;14.06;100.00;102207.19;5117057;28;20047;-46
2023/10/06 05:47:50;;;;;;;0.00;0.00;;;;;;;14.08;100.00;102194.28;5116159;28;20573;-45
2023/10/06 05:50:27;;;;;;;0.00;0.00;;;;;;;14.05;100.00;102197.34;5115698;28;20036;-48
2023/10/06 05:52:59;;;;;;;0.00;0.00;;;;;;;14.06;100.00;102207.19;5115473;28;20408;-48
2023/10/06 05:55:31;;;;;;;0.00;0.00;;;;;;;14.05;100.00;102209.00;5109952;28;20028;-48
2023/10/06 05:58:00;;;;;;;0.00;0.00;;;;;;;14.06;100.00;102212.59;5114227;28;20315;-46
2023/10/06 06:00:29;;;;;;;0.00;0.00;;;;;;;14.05;100.00;102206.31;5115434;28;20458;-48
2023/10/06 06:02:58;;;;;;;0.00;0.00;;;;;;;14.04;100.00;102204.63;5080187;28;20062;-44
2023/10/06 06:05:29;;;;;;;0.00;0.00;;;;;;;14.01;100.00;102204.13;5057288;28;20036;-45
2023/10/06 06:07:56;;;;;;;0.00;0.00;;;;;;;14.02;100.00;102194.97;5073427;28;20068;-46
2023/10/06 06:10:21;;;;;;;0.00;0.00;;;;;;;14.02;100.00;102186.88;5073396;28;20044;-46
2023/10/06 06:12:48;;;;;;;0.00;0.00;;;;;;;14.06;100.00;102188.22;5069809;28;20555;-46
2023/10/06 06:15:13;;;;;;;0.00;0.00;;;;;;;14.03;100.00;102185.84;5072152;28;20032;-44
2023/10/06 06:17:40;;;;;;;0.00;0.00;;;;;;;14.04;100.00;102188.38;5072403;28;20114;-45
2023/10/06 06:20:14;;;;;;;0.00;0.00;;;;;;;14.03;100.00;102188.53;5072149;28;20032;-43
2023/10/06 06:22:40;;;;;;;0.00;0.00;;;;;;;14.03;100.00;102181.28;5074489;28;20263;-42
2023/10/06 06:25:06;;;;;;;0.00;0.00;;;;;;;14.04;100.00;102182.13;5073286;28;20020;-49
2023/10/06 06:27:32;;;;;;;0.00;0.00;;;;;;;14.13;100.00;102191.91;5073858;28;20375;-48
2023/10/06 06:29:57;;;;;;;0.00;0.00;;;;;;;14.15;100.00;102189.88;5072864;28;20044;-47
2023/10/06 06:32:25;;;;;;;0.00;0.00;;;;;;;14.13;100.00;102191.91;5073123;28;20052;-48
2023/10/06 06:34:51;;;;;;;0.00;0.00;;;;;;;14.12;100.00;102198.34;5073581;28;20352;-47
2023/10/06 06:37:16;;;;;;;0.00;0.00;;;;;;;14.16;100.00;102199.69;5073524;28;20027;-46
2023/10/06 06:39:44;;;;;;;0.00;0.00;;;;;;;14.20;100.00;102201.03;5073963;28;20024;-44
2023/10/06 06:42:13;;;;;;;0.00;0.00;;;;;;;14.22;100.00;102199.00;5074278;28;20059;-45
2023/10/06 06:44:39;;;;;;;0.00;0.00;;;;;;;14.25;100.00;102201.38;5073917;28;20032;-40
2023/10/06 06:47:05;;;;;;;0.00;0.00;;;;;;;14.26;100.00;102197.63;5073949;28;20031;-46
2023/10/06 06:49:31;;;;;;;0.00;0.00;;;;;;;14.24;100.00;102199.69;5074217;28;20037;-47
2023/10/06 06:51:58;;;;;;;0.00;0.00;;;;;;;14.26;100.00;102205.75;5073937;28;20035;-50
2023/10/06 06:54:25;;;;;;;0.00;0.00;;;;;;;14.30;100.00;102208.13;5074024;28;20036;-49
2023/10/06 06:56:50;;;;;;;0.00;0.00;;;;;;;14.34;100.00;102202.19;5073525;28;20043;-49
2023/10/06 06:59:18;;;;;;;0.00;0.00;;;;;;;14.44;100.00;102205.53;5073645;28;20028;-48
2023/10/06 07:01:44;;;;;;;0.00;0.00;;;;;;;14.51;100.00;102197.56;5087524;28;20477;-45
2023/10/06 07:04:10;;;;;;;0.00;0.00;;;;;;;14.60;100.00;102201.97;5114259;28;20122;-46
2023/10/06 07:06:37;;;;;;;0.00;0.00;;;;;;;14.65;100.00;102201.44;5114158;28;20473;-47
2023/10/06 07:09:04;;;;;;;0.00;0.00;;;;;;;14.75;100.00;102201.25;5113850;28;20031;-50
2023/10/06 07:11:34;;;;;;;0.00;0.00;;;;;;;14.84;100.00;102202.88;5114619;28;20055;-48
2023/10/06 07:13:59;;;;;;;0.00;0.00;;;;;;;14.93;100.00;102209.97;5114181;28;20055;-45
2023/10/06 07:16:25;;;;;;;0.00;0.00;;;;;;;14.97;100.00;102205.84;5113949;28;20327;-48
2023/10/06 07:18:50;;;;;;;0.00;0.00;;;;;;;15.20;100.00;102200.47;5114072;28;20031;-43
2023/10/06 07:21:17;;;;;;;0.00;0.00;;;;;;;15.43;100.00;102203.22;5114073;28;20436;-45
2023/10/06 07:23:43;;;;;;;0.00;0.00;;;;;;;15.46;100.00;102200.13;5114125;28;20105;-44
2023/10/06 07:26:12;;;;;;;0.00;0.00;;;;;;;15.60;100.00;102193.06;5113680;28;20443;-49
2023/10/06 07:28:39;;;;;;;0.00;0.00;;;;;;;15.74;100.00;102197.72;5113544;28;20538;-44
2023/10/06 07:31:12;;;;;;;0.00;0.00;;;;;;;15.77;100.00;102201.94;5113490;28;20027;-44
2023/10/06 07:33:41;;;;;;;0.00;0.00;;;;;;;15.60;100.00;102209.34;5113864;28;20046;-44
2023/10/06 07:36:17;;;;;;;0.00;0.00;;;;;;;15.55;100.00;102209.88;5129564;27;20087;-46
2023/10/06 07:38:43;;;;;;;0.00;0.00;;;;;;;15.54;100.00;102208.22;5113526;28;20027;-49
2023/10/06 07:41:13;;;;;;;0.00;0.00;;;;;;;15.73;100.00;102206.06;5113199;28;20023;-50
2023/10/06 07:43:39;;;;;;;0.00;0.00;;;;;;;15.56;100.00;102211.59;5095032;28;20024;-46
2023/10/06 07:46:07;;;;;;;0.00;0.00;;;;;;;15.61;100.00;102226.47;5113043;28;20482;-45
2023/10/06 07:48:39;;;;;;;0.00;0.00;;;;;;;15.64;100.00;102226.09;5113692;28;20409;-44
2023/10/06 07:51:13;;;;;;;0.00;0.00;;;;;;;15.58;100.00;102225.78;5113283;28;20458;-45
2023/10/06 07:53:43;;;;;;;0.00;0.00;;;;;;;15.54;100.00;102229.91;5113772;28;20485;-44
2023/10/06 07:56:09;;;;;;;0.00;0.00;;;;;;;15.56;100.00;102227.88;5113411;28;20093;-47
2023/10/06 07:58:41;;;;;;;0.00;0.00;;;;;;;15.58;100.00;102228.50;5113396;28;20024;-49
2023/10/06 08:01:08;;;;;;;0.00;0.00;;;;;;;15.51;100.00;102230.28;5113149;28;20111;-47
2023/10/06 08:03:38;;;;;;;0.00;0.00;;;;;;;15.48;100.00;102230.66;5113141;28;20028;-45
2023/10/06 08:06:05;;;;;;;0.00;0.00;;;;;;;15.57;100.00;102236.84;5113350;28;20026;-48
2023/10/06 08:08:33;;;;;;;0.00;0.00;;;;;;;15.57;100.00;102236.84;5113064;28;20081;-47
2023/10/06 08:11:01;;;;;;;0.00;0.00;;;;;;;15.63;100.00;102230.69;5113128;28;20062;-44
2023/10/06 08:13:28;;;;;;;0.00;0.00;;;;;;;15.68;100.00;102230.16;5112935;28;20027;-45
2023/10/06 08:15:53;;;;;;;0.00;0.00;;;;;;;15.74;100.00;102241.13;5112703;28;20035;-45
2023/10/06 08:18:19;;;;;;;0.00;0.00;;;;;;;15.81;100.00;102233.13;5112309;28;20040;-46
2023/10/06 08:20:46;;;;;;;0.00;0.00;;;;;;;15.93;100.00;102233.50;5112999;28;20024;-49
2023/10/06 08:23:11;;;;;;;0.00;0.00;;;;;;;16.10;100.00;102239.66;5112788;28;20028;-48
2023/10/06 08:25:37;;;;;;;0.00;0.00;;;;;;;16.27;100.00;102235.72;5112873;28;20413;-45
2023/10/06 08:28:05;;;;;;;0.00;0.00;;;;;;;16.36;100.00;102242.78;5112654;28;20034;-46
2023/10/06 08:30:32;;;;;;;;;;;;;;;16.50;100.00;102234.81;5113087;28;20465;-46
2023/10/06 08:32:59;;;;;;;0.00;0.00;;;;;;;16.57;100.00;102224.91;5112616;28;19908;-47
2023/10/06 08:35:26;;;;;;;0.00;0.00;;;;;;;16.76;100.00;102235.19;5112874;28;20536;-44
2023/10/06 08:37:52;;;;;;;0.00;0.00;;;;;;;16.75;100.00;102236.22;5112616;28;20020;-47
2023/10/06 08:40:19;;;;;;;0.00;0.00;;;;;;;16.77;100.00;102245.09;5112355;28;20065;-45
2023/10/06 08:42:47;;;;;;;0.00;0.00;;;;;;;16.74;100.00;102245.41;5112599;28;20603;-46
2023/10/06 08:45:15;;;;;;;0.00;0.00;;;;;;;16.87;100.00;102245.59;5128258;27;20046;-48
2023/10/06 08:47:41;;;;;;;0.00;0.00;;;;;;;17.00;100.00;102255.81;5112398;28;20034;-45
2023/10/06 08:50:07;;;;;;;0.00;0.00;;;;;;;16.92;100.00;102246.94;5094400;28;20134;-48
2023/10/06 08:52:32;;;;;;;0.00;0.00;;;;;;;16.85;100.00;102236.81;5112536;28;20038;-44
2023/10/06 08:54:59;;;;;;;0.00;0.00;;;;;;;16.87;100.00;102245.59;5112015;28;20028;-44
2023/10/06 08:57:24;;;;;;;0.00;0.00;;;;;;;16.84;100.00;102240.56;5112587;28;20046;-46
2023/10/06 08:59:50;;;;;;;0.00;0.00;;;;;;;16.97;100.00;102242.59;5112253;28;20032;-49
2023/10/06 09:02:16;;;;;;;0.00;0.00;;;;;;;17.14;100.00;102237.81;5111681;28;20044;-46
2023/10/06 09:04:43;;;;;;;0.00;0.00;;;;;;;17.13;100.00;102240.69;5112330;28;20109;-43
2023/10/06 09:07:11;;;;;;;0.00;0.00;;;;;;;17.08;100.00;102235.81;5112153;28;20067;-46
2023/10/06 09:09:37;;;;;;;0.00;0.00;;;;;;;17.21;100.00;102244.13;5111843;28;20026;-43
2023/10/06 09:12:03;;;;;;;0.00;0.00;;;;;;;17.29;100.00;102246.75;5112242;28;20028;-45
2023/10/06 09:14:29;;;;;;;0.00;0.00;;;;;;;17.33;100.00;102247.22;5113216;28;20023;-45
2023/10/06 09:17:01;;;;;;;0.00;0.00;;;;;;;17.28;100.00;102249.66;5113026;28;20036;-45
2023/10/06 09:19:26;;;;;;;0.00;0.00;;;;;;;17.17;100.00;102242.84;5112584;28;20520;-44
2023/10/06 09:22:02;;;;;;;0.00;0.00;;;;;;;16.96;100.00;102240.94;5112213;28;20020;-45
2023/10/06 09:24:27;;;;;;;0.00;0.00;;;;;;;16.98;100.00;102227.13;5112184;28;20042;-43
2023/10/06 09:26:55;;;;;;;0.00;0.00;;;;;;;17.01;100.00;102243.06;5112196;28;20102;-46
2023/10/06 09:29:33;;;;;;;0.00;0.00;;;;;;;17.12;100.00;102242.59;5112145;28;20035;-47
2023/10/06 09:31:59;;;;;;;0.00;0.00;;;;;;;17.17;100.00;102228.38;5112105;28;20035;-47
2023/10/06 09:34:25;;;;;;;0.00;0.00;;;;;;;17.27;100.00;102232.50;5111579;28;20275;-45
2023/10/06 09:36:51;;;;;;;0.00;0.00;;;;;;;17.40;100.00;102220.06;5112324;28;20055;-47
2023/10/06 09:39:32;;;;;;;0.00;0.00;;;;;;;17.58;100.00;102216.88;5112290;28;20024;-44
2023/10/06 09:42:00;;;;;;;0.00;0.00;;;;;;;17.64;100.00;102227.00;5111966;28;20073;-44
2023/10/06 09:44:27;;;;;;;0.00;0.00;;;;;;;17.63;100.00;102234.31;5112303;28;20429;-44
2023/10/06 09:46:53;;;;;;;0.00;0.00;;;;;;;17.70;100.00;102243.41;5112059;28;20024;-49
2023/10/06 09:49:18;;;;;;;0.00;0.00;;;;;;;17.65;100.00;102237.69;5112160;28;20032;-47
2023/10/06 09:51:45;;;;;;;0.00;0.00;;;;;;;17.64;100.00;102233.31;5111733;28;20409;-45
2023/10/06 09:54:11;;;;;;;0.00;0.00;;;;;;;17.56;100.00;102230.69;5093604;28;20035;-45
2023/10/06 09:56:42;;;;;;;0.00;0.00;;;;;;;17.64;100.00;102230.59;5093477;28;20511;-46
2023/10/06 09:59:13;;;;;;;0.00;0.00;;;;;;;17.68;100.00;102222.84;5111366;28;20027;-45
2023/10/06 10:01:42;;;;;;;0.00;0.00;;;;;;;17.68;100.00;102234.59;5111207;28;20154;-44
2023/10/06 10:04:11;;;;;;;0.00;0.00;;;;;;;17.57;100.00;102221.50;5111905;28;20493;-47
2023/10/06 10:06:43;;;;;;;0.00;0.00;;;;;;;17.58;100.00;102219.63;5114520;28;20108;-45
2023/10/06 10:09:17;;;;;;;0.00;0.00;;;;;;;17.53;100.00;102229.19;5115484;28;20038;-48
2023/10/06 10:12:00;;;;;;;0.00;0.00;;;;;;;17.57;100.00;102215.22;5115230;28;20038;-45
2023/10/06 10:15:12;;;;;;;0.00;0.00;;;;;;;17.53;100.00;102231.06;5097232;28;20032;-44
2023/10/06 10:18:15;;;;;;;0.00;0.00;;;;;;;17.36;100.00;102207.88;5105083;28;20040;-48
2023/10/06 10:20:40;;;;;;;0.22;0.00;;;;;;;17.35;100.00;102217.91;5113906;28;20042;-48
2023/10/06 10:23:06;;;;;;;0.00;0.00;;;;;;;17.39;100.00;102216.50;5131144;27;20422;-45
2023/10/06 10:25:36;;;;;;;0.00;0.00;;;;;;;17.49;100.00;102221.63;5115117;28;20035;-42
2023/10/06 10:28:12;;;;;;;0.00;0.00;;;;;;;17.57;100.00;102217.94;5115042;28;20028;-48
2023/10/06 10:30:57;;;;;;;0.00;0.00;;;;;;;17.71;100.00;102228.75;5114836;28;20102;-45
2023/10/06 10:33:30;;;;;;;0.00;0.00;;;;;;;17.75;100.00;102229.22;5114930;28;20028;-47
2023/10/06 10:36:11;;;;;;;0.00;0.00;;;;;;;17.81;100.00;102223.00;5114934;28;20119;-46
2023/10/06 10:38:37;;;;;;;0.00;0.00;;;;;;;17.89;100.00;102230.19;5114845;28;20346;-44
2023/10/06 10:41:06;;;;;;;0.00;0.00;;;;;;;17.94;100.00;102217.66;5114809;28;20092;-50
2023/10/06 10:43:32;;;;;;;0.00;0.00;;;;;;;17.91;100.00;102222.69;5114861;28;20020;-48
2023/10/06 10:45:59;;;;;;;0.00;0.00;;;;;;;17.93;100.00;102220.56;5096641;28;20381;-43
2023/10/06 10:48:31;;;;;;;0.00;0.00;;;;;;;17.83;100.00;102206.47;5114542;28;20609;-43
2023/10/06 10:51:01;;;;;;;0.00;0.00;;;;;;;17.93;100.00;102204.22;5114578;28;20495;-44
2023/10/06 10:53:35;;;;;;;0.00;0.00;;;;;;;18.06;100.00;102209.81;5114218;28;20027;-43
2023/10/06 10:56:03;;;;;;;0.00;0.00;;;;;;;18.13;100.00;102213.41;5114484;28;20400;-42
2023/10/06 10:58:44;;;;;;;0.00;0.00;;;;;;;18.21;100.00;102209.69;5114145;28;20035;-45
2023/10/06 11:01:36;;;;;;;0.00;0.00;;;;;;;18.29;100.00;102219.59;5114473;28;20028;-46
2023/10/06 11:04:14;;;;;;;0.00;0.00;;;;;;;18.39;100.00;102204.56;5114047;28;20051;-44
2023/10/06 11:06:40;;;;;;;0.00;0.00;;;;;;;18.50;100.00;102200.41;5114492;28;20023;-44
2023/10/06 11:09:25;;;;;;;0.00;0.00;;;;;;;18.59;100.00;102210.13;5114073;28;20361;-44
2023/10/06 11:11:55;;;;;;;0.00;0.00;;;;;;;18.63;100.00;102199.66;5114465;28;20076;-46
2023/10/06 11:14:25;;;;;;;0.00;0.00;;;;;;;18.60;100.00;102200.06;5114219;28;20028;-45
2023/10/06 11:16:50;;;;;;;0.00;0.00;;;;;;;18.68;100.00;102196.31;5113826;28;20047;-44
2023/10/06 11:19:16;;;;;;;0.00;0.00;;;;;;;18.61;100.00;102197.13;5114378;28;20023;-48
2023/10/06 11:21:48;;;;;;;0.00;0.00;;;;;;;18.80;100.00;102205.63;5115441;28;20027;-47
2023/10/06 11:24:27;;;;;;;0.00;0.00;;;;;;;18.89;100.00;102187.22;5114904;28;20023;-48